sensor_id;sensor_type;location;lat;lon;timestamp;P1;durP1;ratioP1;P2;durP2;ratioP2
3541;SDS011;1785;47.388;8.538;2022-12-05T00:00:16;16.37;;;13.37;;
3541;SDS011;1785;47.388;8.538;2022-12-05T00:02:43;18.43;;;14.13;;
3541;SDS011;1785;47.388;8.538;2022-12-05T00:05:10;13.83;;;12.53;;
3541;SDS011;1785;47.388;8.538;2022-12-05T00:07:36;18.93;;;12.53;;
3541;SDS011;1785;47.388;8.538;2022-12-05T00:10:03;20.40;;;15.10;;
3541;SDS011;1785;47.388;8.538;2022-12-05T00:12:31;16.60;;;14.03;;
3541;SDS011;1785;47.388;8.538;2022-12-05T00:14:57;18.80;;;14.30;;
3541;SDS011;1785;47.388;8.538;2022-12-05T00:17:24;17.23;;;14.27;;
3541;SDS011;1785;47.388;8.538;2022-12-05T00:19:50;18.20;;;14.33;;
3541;SDS011;1785;47.388;8.538;2022-12-05T00:22:16;20.47;;;15.13;;
3541;SDS011;1785;47.388;8.538;2022-12-05T00:24:42;20.23;;;14.00;;
3541;SDS011;1785;47.388;8.538;2022-12-05T00:27:08;20.00;;;13.70;;
3541;SDS011;1785;47.388;8.538;2022-12-05T00:29:35;16.30;;;12.53;;
3541;SDS011;1785;47.388;8.538;2022-12-05T00:32:02;17.67;;;14.00;;
3541;SDS011;1785;47.388;8.538;2022-12-05T00:34:28;20.03;;;13.73;;
3541;SDS011;1785;47.388;8.538;2022-12-05T00:36:54;21.27;;;14.20;;
3541;SDS011;1785;47.388;8.538;2022-12-05T00:39:20;24.43;;;14.03;;
3541;SDS011;1785;47.388;8.538;2022-12-05T00:41:47;19.03;;;14.30;;
3541;SDS011;1785;47.388;8.538;2022-12-05T00:44:13;19.43;;;14.37;;
3541;SDS011;1785;47.388;8.538;2022-12-05T00:46:40;16.20;;;14.40;;
3541;SDS011;1785;47.388;8.538;2022-12-05T00:49:09;18.97;;;14.20;;
3541;SDS011;1785;47.388;8.538;2022-12-05T00:51:36;20.50;;;14.90;;
3541;SDS011;1785;47.388;8.538;2022-12-05T00:54:04;15.37;;;13.00;;
3541;SDS011;1785;47.388;8.538;2022-12-05T00:56:31;18.43;;;14.10;;
3541;SDS011;1785;47.388;8.538;2022-12-05T00:58:58;21.30;;;16.63;;
3541;SDS011;1785;47.388;8.538;2022-12-05T01:01:26;17.63;;;13.87;;
3541;SDS011;1785;47.388;8.538;2022-12-05T01:03:55;21.10;;;15.43;;
3541;SDS011;1785;47.388;8.538;2022-12-05T01:06:23;17.87;;;14.63;;
3541;SDS011;1785;47.388;8.538;2022-12-05T01:08:51;18.50;;;13.90;;
3541;SDS011;1785;47.388;8.538;2022-12-05T01:11:18;20.20;;;16.30;;
3541;SDS011;1785;47.388;8.538;2022-12-05T01:13:45;21.00;;;14.60;;
3541;SDS011;1785;47.388;8.538;2022-12-05T01:16:12;18.90;;;14.33;;
3541;SDS011;1785;47.388;8.538;2022-12-05T01:18:39;17.97;;;15.33;;
3541;SDS011;1785;47.388;8.538;2022-12-05T01:21:06;17.83;;;13.33;;
3541;SDS011;1785;47.388;8.538;2022-12-05T01:23:33;20.30;;;14.87;;
3541;SDS011;1785;47.388;8.538;2022-12-05T01:25:59;19.57;;;14.90;;
3541;SDS011;1785;47.388;8.538;2022-12-05T01:28:30;17.37;;;14.20;;
3541;SDS011;1785;47.388;8.538;2022-12-05T01:30:57;22.90;;;14.60;;
3541;SDS011;1785;47.388;8.538;2022-12-05T01:33:23;17.20;;;13.27;;
3541;SDS011;1785;47.388;8.538;2022-12-05T01:35:49;16.83;;;13.70;;
3541;SDS011;1785;47.388;8.538;2022-12-05T01:38:16;22.90;;;14.53;;
3541;SDS011;1785;47.388;8.538;2022-12-05T01:40:42;18.50;;;15.73;;
3541;SDS011;1785;47.388;8.538;2022-12-05T01:43:09;15.23;;;13.47;;
3541;SDS011;1785;47.388;8.538;2022-12-05T01:45:40;17.30;;;13.83;;
3541;SDS011;1785;47.388;8.538;2022-12-05T01:48:10;18.73;;;15.07;;
3541;SDS011;1785;47.388;8.538;2022-12-05T01:50:40;17.27;;;15.00;;
3541;SDS011;1785;47.388;8.538;2022-12-05T01:53:07;17.23;;;14.40;;
3541;SDS011;1785;47.388;8.538;2022-12-05T01:55:34;18.80;;;13.97;;
3541;SDS011;1785;47.388;8.538;2022-12-05T01:58:01;18.77;;;15.03;;
3541;SDS011;1785;47.388;8.538;2022-12-05T02:00:29;14.77;;;13.23;;
3541;SDS011;1785;47.388;8.538;2022-12-05T02:02:56;15.17;;;13.07;;
3541;SDS011;1785;47.388;8.538;2022-12-05T02:05:24;19.63;;;14.70;;
3541;SDS011;1785;47.388;8.538;2022-12-05T02:07:52;20.00;;;15.20;;
3541;SDS011;1785;47.388;8.538;2022-12-05T02:10:19;20.90;;;14.90;;
3541;SDS011;1785;47.388;8.538;2022-12-05T02:12:46;25.20;;;15.57;;
3541;SDS011;1785;47.388;8.538;2022-12-05T02:15:25;17.70;;;14.20;;
3541;SDS011;1785;47.388;8.538;2022-12-05T02:18:04;18.27;;;15.30;;
3541;SDS011;1785;47.388;8.538;2022-12-05T02:20:42;17.47;;;14.93;;
3541;SDS011;1785;47.388;8.538;2022-12-05T02:23:26;17.60;;;13.73;;
3541;SDS011;1785;47.388;8.538;2022-12-05T02:26:15;16.50;;;14.43;;
3541;SDS011;1785;47.388;8.538;2022-12-05T02:31:54;19.10;;;14.53;;
3541;SDS011;1785;47.388;8.538;2022-12-05T02:34:26;19.70;;;15.70;;
3541;SDS011;1785;47.388;8.538;2022-12-05T02:36:59;17.53;;;14.20;;
3541;SDS011;1785;47.388;8.538;2022-12-05T02:39:31;14.87;;;13.27;;
3541;SDS011;1785;47.388;8.538;2022-12-05T02:42:07;18.30;;;14.33;;
3541;SDS011;1785;47.388;8.538;2022-12-05T02:44:38;19.67;;;14.43;;
3541;SDS011;1785;47.388;8.538;2022-12-05T02:47:09;19.43;;;14.17;;
3541;SDS011;1785;47.388;8.538;2022-12-05T02:49:38;16.83;;;14.03;;
3541;SDS011;1785;47.388;8.538;2022-12-05T02:52:07;17.60;;;14.13;;
3541;SDS011;1785;47.388;8.538;2022-12-05T02:54:41;18.77;;;14.03;;
3541;SDS011;1785;47.388;8.538;2022-12-05T02:57:12;20.07;;;15.10;;
3541;SDS011;1785;47.388;8.538;2022-12-05T02:59:39;15.93;;;14.10;;
3541;SDS011;1785;47.388;8.538;2022-12-05T03:02:07;15.60;;;13.90;;
3541;SDS011;1785;47.388;8.538;2022-12-05T03:04:34;18.43;;;15.00;;
3541;SDS011;1785;47.388;8.538;2022-12-05T03:07:02;20.60;;;15.33;;
3541;SDS011;1785;47.388;8.538;2022-12-05T03:09:33;18.30;;;15.00;;
3541;SDS011;1785;47.388;8.538;2022-12-05T03:12:02;21.47;;;16.13;;
3541;SDS011;1785;47.388;8.538;2022-12-05T03:14:34;21.47;;;15.50;;
3541;SDS011;1785;47.388;8.538;2022-12-05T03:17:06;21.97;;;15.57;;
3541;SDS011;1785;47.388;8.538;2022-12-05T03:19:40;21.10;;;16.53;;
3541;SDS011;1785;47.388;8.538;2022-12-05T03:22:13;21.43;;;17.90;;
3541;SDS011;1785;47.388;8.538;2022-12-05T03:24:43;24.53;;;17.10;;
3541;SDS011;1785;47.388;8.538;2022-12-05T03:27:10;21.07;;;16.20;;
3541;SDS011;1785;47.388;8.538;2022-12-05T03:29:46;20.03;;;16.57;;
3541;SDS011;1785;47.388;8.538;2022-12-05T03:32:17;21.20;;;16.97;;
3541;SDS011;1785;47.388;8.538;2022-12-05T03:34:50;20.53;;;15.50;;
3541;SDS011;1785;47.388;8.538;2022-12-05T03:37:28;20.73;;;17.07;;
3541;SDS011;1785;47.388;8.538;2022-12-05T03:40:04;20.77;;;15.83;;
3541;SDS011;1785;47.388;8.538;2022-12-05T03:42:35;20.70;;;15.60;;
3541;SDS011;1785;47.388;8.538;2022-12-05T03:45:08;19.97;;;15.87;;
3541;SDS011;1785;47.388;8.538;2022-12-05T03:47:41;20.60;;;16.57;;
3541;SDS011;1785;47.388;8.538;2022-12-05T03:50:18;18.83;;;14.80;;
3541;SDS011;1785;47.388;8.538;2022-12-05T03:52:49;19.97;;;16.07;;
3541;SDS011;1785;47.388;8.538;2022-12-05T03:55:19;17.50;;;14.50;;
3541;SDS011;1785;47.388;8.538;2022-12-05T03:57:49;19.87;;;15.10;;
3541;SDS011;1785;47.388;8.538;2022-12-05T04:00:20;22.03;;;15.63;;
3541;SDS011;1785;47.388;8.538;2022-12-05T04:02:48;23.30;;;15.47;;
3541;SDS011;1785;47.388;8.538;2022-12-05T04:05:21;21.60;;;16.27;;
3541;SDS011;1785;47.388;8.538;2022-12-05T04:07:52;20.23;;;15.27;;
3541;SDS011;1785;47.388;8.538;2022-12-05T04:10:23;20.10;;;15.93;;
3541;SDS011;1785;47.388;8.538;2022-12-05T04:12:54;21.23;;;16.03;;
3541;SDS011;1785;47.388;8.538;2022-12-05T04:15:41;24.10;;;16.23;;
3541;SDS011;1785;47.388;8.538;2022-12-05T04:18:31;21.30;;;15.30;;
3541;SDS011;1785;47.388;8.538;2022-12-05T04:20:59;19.97;;;15.43;;
3541;SDS011;1785;47.388;8.538;2022-12-05T04:23:45;20.53;;;15.97;;
3541;SDS011;1785;47.388;8.538;2022-12-05T04:26:31;20.40;;;14.70;;
3541;SDS011;1785;47.388;8.538;2022-12-05T04:29:00;21.00;;;14.83;;
3541;SDS011;1785;47.388;8.538;2022-12-05T04:31:32;19.70;;;15.70;;
3541;SDS011;1785;47.388;8.538;2022-12-05T04:34:03;17.00;;;13.10;;
3541;SDS011;1785;47.388;8.538;2022-12-05T04:36:33;17.70;;;13.57;;
3541;SDS011;1785;47.388;8.538;2022-12-05T04:39:03;15.10;;;13.10;;
3541;SDS011;1785;47.388;8.538;2022-12-05T04:41:35;14.83;;;12.57;;
3541;SDS011;1785;47.388;8.538;2022-12-05T04:44:04;16.47;;;12.00;;
3541;SDS011;1785;47.388;8.538;2022-12-05T04:46:33;14.93;;;12.10;;
3541;SDS011;1785;47.388;8.538;2022-12-05T04:49:03;12.63;;;10.90;;
3541;SDS011;1785;47.388;8.538;2022-12-05T04:51:34;11.77;;;9.90;;
3541;SDS011;1785;47.388;8.538;2022-12-05T04:54:06;10.23;;;8.93;;
3541;SDS011;1785;47.388;8.538;2022-12-05T04:56:39;11.00;;;9.00;;
3541;SDS011;1785;47.388;8.538;2022-12-05T04:59:08;11.73;;;10.27;;
3541;SDS011;1785;47.388;8.538;2022-12-05T05:01:36;11.27;;;9.53;;
3541;SDS011;1785;47.388;8.538;2022-12-05T05:04:07;12.53;;;9.80;;
3541;SDS011;1785;47.388;8.538;2022-12-05T05:06:38;9.53;;;8.73;;
3541;SDS011;1785;47.388;8.538;2022-12-05T05:09:05;10.50;;;8.97;;
3541;SDS011;1785;47.388;8.538;2022-12-05T05:11:35;11.27;;;9.43;;
3541;SDS011;1785;47.388;8.538;2022-12-05T05:14:02;11.10;;;10.00;;
3541;SDS011;1785;47.388;8.538;2022-12-05T05:16:30;10.40;;;9.10;;
3541;SDS011;1785;47.388;8.538;2022-12-05T05:18:57;12.50;;;10.10;;
3541;SDS011;1785;47.388;8.538;2022-12-05T05:21:24;10.70;;;9.70;;
3541;SDS011;1785;47.388;8.538;2022-12-05T05:23:52;14.10;;;10.50;;
3541;SDS011;1785;47.388;8.538;2022-12-05T05:26:18;10.93;;;8.60;;
3541;SDS011;1785;47.388;8.538;2022-12-05T05:28:45;10.73;;;9.07;;
3541;SDS011;1785;47.388;8.538;2022-12-05T05:31:12;10.40;;;9.30;;
3541;SDS011;1785;47.388;8.538;2022-12-05T05:33:40;9.73;;;8.73;;
3541;SDS011;1785;47.388;8.538;2022-12-05T05:36:07;9.30;;;8.10;;
3541;SDS011;1785;47.388;8.538;2022-12-05T05:38:35;8.30;;;7.50;;
3541;SDS011;1785;47.388;8.538;2022-12-05T05:41:02;8.13;;;7.30;;
3541;SDS011;1785;47.388;8.538;2022-12-05T05:43:29;10.27;;;8.77;;
3541;SDS011;1785;47.388;8.538;2022-12-05T05:45:56;7.73;;;7.00;;
3541;SDS011;1785;47.388;8.538;2022-12-05T05:48:22;9.93;;;8.40;;
3541;SDS011;1785;47.388;8.538;2022-12-05T05:50:49;10.10;;;8.20;;
3541;SDS011;1785;47.388;8.538;2022-12-05T05:53:15;8.53;;;7.63;;
3541;SDS011;1785;47.388;8.538;2022-12-05T05:55:41;8.23;;;7.10;;
3541;SDS011;1785;47.388;8.538;2022-12-05T05:58:08;8.17;;;7.33;;
3541;SDS011;1785;47.388;8.538;2022-12-05T06:00:35;7.63;;;6.93;;
3541;SDS011;1785;47.388;8.538;2022-12-05T06:03:01;6.30;;;5.80;;
3541;SDS011;1785;47.388;8.538;2022-12-05T06:05:27;6.40;;;5.80;;
3541;SDS011;1785;47.388;8.538;2022-12-05T06:07:54;6.73;;;6.13;;
3541;SDS011;1785;47.388;8.538;2022-12-05T06:10:20;8.53;;;7.30;;
3541;SDS011;1785;47.388;8.538;2022-12-05T06:12:46;6.30;;;5.70;;
3541;SDS011;1785;47.388;8.538;2022-12-05T06:15:13;7.47;;;5.20;;
3541;SDS011;1785;47.388;8.538;2022-12-05T06:17:39;9.90;;;6.10;;
3541;SDS011;1785;47.388;8.538;2022-12-05T06:20:06;8.07;;;6.30;;
3541;SDS011;1785;47.388;8.538;2022-12-05T06:22:33;6.53;;;5.13;;
3541;SDS011;1785;47.388;8.538;2022-12-05T06:24:59;6.13;;;5.53;;
3541;SDS011;1785;47.388;8.538;2022-12-05T06:27:27;7.07;;;5.70;;
3541;SDS011;1785;47.388;8.538;2022-12-05T06:29:54;6.53;;;5.83;;
3541;SDS011;1785;47.388;8.538;2022-12-05T06:32:21;5.70;;;5.20;;
3541;SDS011;1785;47.388;8.538;2022-12-05T06:34:48;6.30;;;5.70;;
3541;SDS011;1785;47.388;8.538;2022-12-05T06:37:14;4.93;;;4.53;;
3541;SDS011;1785;47.388;8.538;2022-12-05T06:39:40;5.70;;;5.10;;
3541;SDS011;1785;47.388;8.538;2022-12-05T06:42:07;5.03;;;4.60;;
3541;SDS011;1785;47.388;8.538;2022-12-05T06:44:33;6.10;;;4.70;;
3541;SDS011;1785;47.388;8.538;2022-12-05T06:46:59;5.47;;;5.00;;
3541;SDS011;1785;47.388;8.538;2022-12-05T06:49:26;4.23;;;3.83;;
3541;SDS011;1785;47.388;8.538;2022-12-05T06:51:56;6.13;;;5.53;;
3541;SDS011;1785;47.388;8.538;2022-12-05T06:54:22;6.17;;;5.50;;
3541;SDS011;1785;47.388;8.538;2022-12-05T06:56:49;6.67;;;4.30;;
3541;SDS011;1785;47.388;8.538;2022-12-05T06:59:15;5.23;;;4.77;;
3541;SDS011;1785;47.388;8.538;2022-12-05T07:01:42;5.00;;;4.23;;
3541;SDS011;1785;47.388;8.538;2022-12-05T07:04:11;5.13;;;4.73;;
3541;SDS011;1785;47.388;8.538;2022-12-05T07:06:40;6.10;;;5.50;;
3541;SDS011;1785;47.388;8.538;2022-12-05T07:09:08;8.47;;;5.90;;
3541;SDS011;1785;47.388;8.538;2022-12-05T07:11:35;6.13;;;4.70;;
3541;SDS011;1785;47.388;8.538;2022-12-05T07:14:02;6.07;;;5.40;;
3541;SDS011;1785;47.388;8.538;2022-12-05T07:16:29;6.03;;;5.40;;
3541;SDS011;1785;47.388;8.538;2022-12-05T07:18:55;8.30;;;6.10;;
3541;SDS011;1785;47.388;8.538;2022-12-05T07:21:22;6.80;;;6.20;;
3541;SDS011;1785;47.388;8.538;2022-12-05T07:23:50;8.23;;;6.63;;
3541;SDS011;1785;47.388;8.538;2022-12-05T07:26:17;6.33;;;5.73;;
3541;SDS011;1785;47.388;8.538;2022-12-05T07:28:45;7.27;;;6.57;;
3541;SDS011;1785;47.388;8.538;2022-12-05T07:31:12;13.17;;;10.20;;
3541;SDS011;1785;47.388;8.538;2022-12-05T07:33:40;9.37;;;7.67;;
3541;SDS011;1785;47.388;8.538;2022-12-05T07:36:07;11.47;;;7.67;;
3541;SDS011;1785;47.388;8.538;2022-12-05T07:38:35;7.63;;;6.90;;
3541;SDS011;1785;47.388;8.538;2022-12-05T07:41:03;6.83;;;6.23;;
3541;SDS011;1785;47.388;8.538;2022-12-05T07:43:31;7.57;;;5.97;;
3541;SDS011;1785;47.388;8.538;2022-12-05T07:45:59;7.40;;;6.63;;
3541;SDS011;1785;47.388;8.538;2022-12-05T07:48:26;6.73;;;6.23;;
3541;SDS011;1785;47.388;8.538;2022-12-05T07:50:53;6.60;;;5.33;;
3541;SDS011;1785;47.388;8.538;2022-12-05T07:53:19;6.63;;;5.50;;
3541;SDS011;1785;47.388;8.538;2022-12-05T07:55:46;5.23;;;4.73;;
3541;SDS011;1785;47.388;8.538;2022-12-05T07:58:12;5.80;;;5.33;;
3541;SDS011;1785;47.388;8.538;2022-12-05T08:00:39;5.27;;;4.87;;
3541;SDS011;1785;47.388;8.538;2022-12-05T08:03:05;5.47;;;5.07;;
3541;SDS011;1785;47.388;8.538;2022-12-05T08:05:32;4.73;;;4.33;;
3541;SDS011;1785;47.388;8.538;2022-12-05T08:07:58;5.10;;;4.63;;
3541;SDS011;1785;47.388;8.538;2022-12-05T08:10:25;4.80;;;4.13;;
3541;SDS011;1785;47.388;8.538;2022-12-05T08:12:51;4.73;;;4.10;;
3541;SDS011;1785;47.388;8.538;2022-12-05T08:15:18;4.20;;;3.90;;
3541;SDS011;1785;47.388;8.538;2022-12-05T08:17:44;4.47;;;4.07;;
3541;SDS011;1785;47.388;8.538;2022-12-05T08:20:11;4.67;;;4.27;;
3541;SDS011;1785;47.388;8.538;2022-12-05T08:22:37;4.50;;;4.10;;
3541;SDS011;1785;47.388;8.538;2022-12-05T08:25:04;4.30;;;3.90;;
3541;SDS011;1785;47.388;8.538;2022-12-05T08:27:31;7.53;;;4.37;;
3541;SDS011;1785;47.388;8.538;2022-12-05T08:29:57;4.23;;;3.93;;
3541;SDS011;1785;47.388;8.538;2022-12-05T08:32:24;5.10;;;4.37;;
3541;SDS011;1785;47.388;8.538;2022-12-05T08:34:51;4.03;;;3.60;;
3541;SDS011;1785;47.388;8.538;2022-12-05T08:37:17;4.30;;;4.00;;
3541;SDS011;1785;47.388;8.538;2022-12-05T08:39:43;7.53;;;4.00;;
3541;SDS011;1785;47.388;8.538;2022-12-05T08:42:10;3.97;;;3.40;;
3541;SDS011;1785;47.388;8.538;2022-12-05T08:44:36;5.33;;;3.60;;
3541;SDS011;1785;47.388;8.538;2022-12-05T08:47:03;3.93;;;3.63;;
3541;SDS011;1785;47.388;8.538;2022-12-05T08:49:30;3.50;;;3.17;;
3541;SDS011;1785;47.388;8.538;2022-12-05T08:51:56;3.57;;;3.27;;
3541;SDS011;1785;47.388;8.538;2022-12-05T08:54:22;4.30;;;4.00;;
3541;SDS011;1785;47.388;8.538;2022-12-05T08:56:49;3.73;;;3.43;;
3541;SDS011;1785;47.388;8.538;2022-12-05T08:59:16;3.23;;;3.00;;
3541;SDS011;1785;47.388;8.538;2022-12-05T09:01:42;4.23;;;3.90;;
3541;SDS011;1785;47.388;8.538;2022-12-05T09:04:08;6.73;;;3.60;;
3541;SDS011;1785;47.388;8.538;2022-12-05T09:06:36;3.60;;;3.30;;
3541;SDS011;1785;47.388;8.538;2022-12-05T09:09:05;3.90;;;3.50;;
3541;SDS011;1785;47.388;8.538;2022-12-05T09:11:33;3.67;;;3.37;;
3541;SDS011;1785;47.388;8.538;2022-12-05T09:14:02;3.57;;;3.37;;
3541;SDS011;1785;47.388;8.538;2022-12-05T09:16:30;3.50;;;3.30;;
3541;SDS011;1785;47.388;8.538;2022-12-05T09:18:57;3.20;;;3.00;;
3541;SDS011;1785;47.388;8.538;2022-12-05T09:21:24;5.23;;;4.53;;
3541;SDS011;1785;47.388;8.538;2022-12-05T09:23:52;4.03;;;3.73;;
3541;SDS011;1785;47.388;8.538;2022-12-05T09:26:20;4.97;;;4.00;;
3541;SDS011;1785;47.388;8.538;2022-12-05T09:28:49;4.40;;;4.00;;
3541;SDS011;1785;47.388;8.538;2022-12-05T09:31:16;4.03;;;3.33;;
3541;SDS011;1785;47.388;8.538;2022-12-05T09:33:44;4.97;;;3.80;;
3541;SDS011;1785;47.388;8.538;2022-12-05T09:36:12;4.13;;;3.73;;
3541;SDS011;1785;47.388;8.538;2022-12-05T09:38:40;4.27;;;3.87;;
3541;SDS011;1785;47.388;8.538;2022-12-05T09:41:10;4.30;;;4.00;;
3541;SDS011;1785;47.388;8.538;2022-12-05T09:43:47;3.50;;;3.30;;
3541;SDS011;1785;47.388;8.538;2022-12-05T09:46:20;4.30;;;4.00;;
3541;SDS011;1785;47.388;8.538;2022-12-05T09:48:54;3.77;;;3.47;;
3541;SDS011;1785;47.388;8.538;2022-12-05T09:51:22;4.87;;;4.57;;
3541;SDS011;1785;47.388;8.538;2022-12-05T09:53:49;4.30;;;3.90;;
3541;SDS011;1785;47.388;8.538;2022-12-05T09:56:18;4.63;;;4.00;;
3541;SDS011;1785;47.388;8.538;2022-12-05T09:58:48;5.10;;;4.13;;
3541;SDS011;1785;47.388;8.538;2022-12-05T10:01:25;5.00;;;3.90;;
3541;SDS011;1785;47.388;8.538;2022-12-05T10:04:04;5.40;;;3.70;;
3541;SDS011;1785;47.388;8.538;2022-12-05T10:06:43;3.87;;;3.60;;
3541;SDS011;1785;47.388;8.538;2022-12-05T10:09:19;4.40;;;4.10;;
3541;SDS011;1785;47.388;8.538;2022-12-05T10:11:59;4.60;;;4.20;;
3541;SDS011;1785;47.388;8.538;2022-12-05T10:14:33;3.73;;;3.47;;
3541;SDS011;1785;47.388;8.538;2022-12-05T10:17:06;4.23;;;3.77;;
3541;SDS011;1785;47.388;8.538;2022-12-05T10:19:42;4.23;;;3.80;;
3541;SDS011;1785;47.388;8.538;2022-12-05T10:22:12;4.30;;;4.00;;
3541;SDS011;1785;47.388;8.538;2022-12-05T10:24:42;3.93;;;3.63;;
3541;SDS011;1785;47.388;8.538;2022-12-05T10:27:14;3.47;;;3.27;;
3541;SDS011;1785;47.388;8.538;2022-12-05T10:29:46;3.60;;;3.40;;
3541;SDS011;1785;47.388;8.538;2022-12-05T10:32:17;4.20;;;3.90;;
3541;SDS011;1785;47.388;8.538;2022-12-05T10:34:48;4.03;;;3.73;;
3541;SDS011;1785;47.388;8.538;2022-12-05T10:37:15;3.70;;;3.40;;
3541;SDS011;1785;47.388;8.538;2022-12-05T10:39:43;3.63;;;3.33;;
3541;SDS011;1785;47.388;8.538;2022-12-05T10:42:12;3.73;;;3.43;;
3541;SDS011;1785;47.388;8.538;2022-12-05T10:44:40;4.40;;;3.90;;
3541;SDS011;1785;47.388;8.538;2022-12-05T10:47:07;4.13;;;3.83;;
3541;SDS011;1785;47.388;8.538;2022-12-05T10:49:33;4.43;;;4.13;;
3541;SDS011;1785;47.388;8.538;2022-12-05T10:52:01;13.73;;;4.63;;
3541;SDS011;1785;47.388;8.538;2022-12-05T10:54:29;5.00;;;4.60;;
3541;SDS011;1785;47.388;8.538;2022-12-05T10:57:00;4.30;;;3.90;;
3541;SDS011;1785;47.388;8.538;2022-12-05T10:59:42;3.70;;;3.50;;
3541;SDS011;1785;47.388;8.538;2022-12-05T11:02:14;5.50;;;4.87;;
3541;SDS011;1785;47.388;8.538;2022-12-05T11:04:46;5.00;;;4.50;;
3541;SDS011;1785;47.388;8.538;2022-12-05T11:07:22;5.10;;;4.70;;
3541;SDS011;1785;47.388;8.538;2022-12-05T11:09:50;5.30;;;4.80;;
3541;SDS011;1785;47.388;8.538;2022-12-05T11:12:21;5.20;;;4.80;;
3541;SDS011;1785;47.388;8.538;2022-12-05T11:14:57;5.47;;;4.87;;
3541;SDS011;1785;47.388;8.538;2022-12-05T11:17:28;7.40;;;5.00;;
3541;SDS011;1785;47.388;8.538;2022-12-05T11:19:58;4.57;;;4.27;;
3541;SDS011;1785;47.388;8.538;2022-12-05T11:22:32;8.40;;;4.70;;
3541;SDS011;1785;47.388;8.538;2022-12-05T11:24:59;5.33;;;4.87;;
3541;SDS011;1785;47.388;8.538;2022-12-05T11:27:27;4.40;;;4.10;;
3541;SDS011;1785;47.388;8.538;2022-12-05T11:29:59;4.10;;;3.80;;
3541;SDS011;1785;47.388;8.538;2022-12-05T11:32:29;4.97;;;4.57;;
3541;SDS011;1785;47.388;8.538;2022-12-05T11:35:07;5.17;;;3.80;;
3541;SDS011;1785;47.388;8.538;2022-12-05T11:37:42;4.70;;;4.30;;
3541;SDS011;1785;47.388;8.538;2022-12-05T11:40:13;4.70;;;4.23;;
3541;SDS011;1785;47.388;8.538;2022-12-05T11:43:05;4.70;;;4.37;;
3541;SDS011;1785;47.388;8.538;2022-12-05T11:45:47;5.03;;;4.63;;
3541;SDS011;1785;47.388;8.538;2022-12-05T11:48:24;7.07;;;5.50;;
3541;SDS011;1785;47.388;8.538;2022-12-05T11:51:21;5.07;;;4.67;;
3541;SDS011;1785;47.388;8.538;2022-12-05T11:54:01;5.60;;;5.20;;
3541;SDS011;1785;47.388;8.538;2022-12-05T11:56:44;5.83;;;5.23;;
3541;SDS011;1785;47.388;8.538;2022-12-05T11:59:21;5.07;;;4.70;;
3541;SDS011;1785;47.388;8.538;2022-12-05T12:02:05;4.43;;;4.03;;
3541;SDS011;1785;47.388;8.538;2022-12-05T12:04:49;6.03;;;5.53;;
3541;SDS011;1785;47.388;8.538;2022-12-05T12:07:24;4.80;;;4.43;;
3541;SDS011;1785;47.388;8.538;2022-12-05T12:10:07;4.47;;;4.13;;
3541;SDS011;1785;47.388;8.538;2022-12-05T12:12:45;5.90;;;5.30;;
3541;SDS011;1785;47.388;8.538;2022-12-05T12:15:33;5.10;;;4.60;;
3541;SDS011;1785;47.388;8.538;2022-12-05T12:18:14;5.13;;;4.63;;
3541;SDS011;1785;47.388;8.538;2022-12-05T12:20:52;5.53;;;5.10;;
3541;SDS011;1785;47.388;8.538;2022-12-05T12:23:29;5.70;;;5.30;;
3541;SDS011;1785;47.388;8.538;2022-12-05T12:26:05;6.53;;;5.93;;
3541;SDS011;1785;47.388;8.538;2022-12-05T12:28:38;6.17;;;5.70;;
3541;SDS011;1785;47.388;8.538;2022-12-05T12:34:12;6.07;;;5.57;;
3541;SDS011;1785;47.388;8.538;2022-12-05T12:36:54;5.63;;;5.10;;
3541;SDS011;1785;47.388;8.538;2022-12-05T12:39:29;4.70;;;4.30;;
3541;SDS011;1785;47.388;8.538;2022-12-05T12:44:58;5.53;;;5.13;;
3541;SDS011;1785;47.388;8.538;2022-12-05T12:47:33;7.77;;;6.30;;
3541;SDS011;1785;47.388;8.538;2022-12-05T12:50:10;5.73;;;5.20;;
3541;SDS011;1785;47.388;8.538;2022-12-05T12:52:49;7.10;;;6.50;;
3541;SDS011;1785;47.388;8.538;2022-12-05T12:55:30;7.50;;;5.90;;
3541;SDS011;1785;47.388;8.538;2022-12-05T12:58:05;5.07;;;4.67;;
3541;SDS011;1785;47.388;8.538;2022-12-05T13:00:43;5.97;;;5.53;;
3541;SDS011;1785;47.388;8.538;2022-12-05T13:03:19;10.43;;;5.30;;
3541;SDS011;1785;47.388;8.538;2022-12-05T13:05:50;6.03;;;5.53;;
3541;SDS011;1785;47.388;8.538;2022-12-05T13:08:22;5.50;;;5.10;;
3541;SDS011;1785;47.388;8.538;2022-12-05T13:10:51;6.07;;;5.47;;
3541;SDS011;1785;47.388;8.538;2022-12-05T13:13:20;5.23;;;4.83;;
3541;SDS011;1785;47.388;8.538;2022-12-05T13:15:51;5.87;;;5.37;;
3541;SDS011;1785;47.388;8.538;2022-12-05T13:18:20;6.43;;;5.70;;
3541;SDS011;1785;47.388;8.538;2022-12-05T13:20:47;5.53;;;5.03;;
3541;SDS011;1785;47.388;8.538;2022-12-05T13:23:18;5.90;;;5.10;;
3541;SDS011;1785;47.388;8.538;2022-12-05T13:25:46;5.87;;;5.30;;
3541;SDS011;1785;47.388;8.538;2022-12-05T13:28:22;6.70;;;6.00;;
3541;SDS011;1785;47.388;8.538;2022-12-05T13:30:54;7.23;;;6.63;;
3541;SDS011;1785;47.388;8.538;2022-12-05T13:33:26;7.57;;;6.87;;
3541;SDS011;1785;47.388;8.538;2022-12-05T13:36:02;9.30;;;6.03;;
3541;SDS011;1785;47.388;8.538;2022-12-05T13:38:54;8.27;;;7.50;;
3541;SDS011;1785;47.388;8.538;2022-12-05T13:41:41;6.60;;;6.00;;
3541;SDS011;1785;47.388;8.538;2022-12-05T13:44:28;6.43;;;5.83;;
3541;SDS011;1785;47.388;8.538;2022-12-05T13:46:59;7.23;;;6.53;;
3541;SDS011;1785;47.388;8.538;2022-12-05T13:49:28;7.53;;;6.80;;
3541;SDS011;1785;47.388;8.538;2022-12-05T13:52:03;7.17;;;6.67;;
3541;SDS011;1785;47.388;8.538;2022-12-05T13:54:33;6.23;;;5.70;;
3541;SDS011;1785;47.388;8.538;2022-12-05T13:57:08;7.90;;;6.90;;
3541;SDS011;1785;47.388;8.538;2022-12-05T14:00:24;7.53;;;6.83;;
3541;SDS011;1785;47.388;8.538;2022-12-05T14:02:57;7.33;;;6.63;;
3541;SDS011;1785;47.388;8.538;2022-12-05T14:05:43;8.27;;;7.33;;
3541;SDS011;1785;47.388;8.538;2022-12-05T14:11:16;6.70;;;6.00;;
3541;SDS011;1785;47.388;8.538;2022-12-05T14:13:42;7.60;;;6.90;;
3541;SDS011;1785;47.388;8.538;2022-12-05T14:19:12;6.50;;;5.90;;
3541;SDS011;1785;47.388;8.538;2022-12-05T14:22:04;11.03;;;6.37;;
3541;SDS011;1785;47.388;8.538;2022-12-05T14:24:42;8.77;;;6.80;;
3541;SDS011;1785;47.388;8.538;2022-12-05T14:27:17;7.93;;;6.53;;
3541;SDS011;1785;47.388;8.538;2022-12-05T14:29:55;7.57;;;6.90;;
3541;SDS011;1785;47.388;8.538;2022-12-05T14:32:28;6.47;;;5.97;;
3541;SDS011;1785;47.388;8.538;2022-12-05T14:35:00;6.70;;;5.83;;
3541;SDS011;1785;47.388;8.538;2022-12-05T14:37:35;6.43;;;5.87;;
3541;SDS011;1785;47.388;8.538;2022-12-05T14:40:02;7.47;;;6.73;;
3541;SDS011;1785;47.388;8.538;2022-12-05T14:42:43;6.67;;;6.17;;
3541;SDS011;1785;47.388;8.538;2022-12-05T14:45:26;7.27;;;6.60;;
3541;SDS011;1785;47.388;8.538;2022-12-05T14:47:55;7.17;;;6.43;;
3541;SDS011;1785;47.388;8.538;2022-12-05T14:50:34;7.27;;;6.53;;
3541;SDS011;1785;47.388;8.538;2022-12-05T14:55:56;7.70;;;5.97;;
3541;SDS011;1785;47.388;8.538;2022-12-05T14:58:32;6.50;;;5.90;;
3541;SDS011;1785;47.388;8.538;2022-12-05T15:01:03;7.33;;;6.60;;
3541;SDS011;1785;47.388;8.538;2022-12-05T15:03:33;7.40;;;6.60;;
3541;SDS011;1785;47.388;8.538;2022-12-05T15:06:03;6.47;;;5.97;;
3541;SDS011;1785;47.388;8.538;2022-12-05T15:08:32;7.80;;;6.97;;
3541;SDS011;1785;47.388;8.538;2022-12-05T15:11:10;6.73;;;6.10;;
3541;SDS011;1785;47.388;8.538;2022-12-05T15:13:53;6.37;;;5.73;;
3541;SDS011;1785;47.388;8.538;2022-12-05T15:16:25;6.13;;;5.50;;
3541;SDS011;1785;47.388;8.538;2022-12-05T15:18:55;6.40;;;5.90;;
3541;SDS011;1785;47.388;8.538;2022-12-05T15:21:25;7.70;;;5.50;;
3541;SDS011;1785;47.388;8.538;2022-12-05T15:23:58;7.40;;;6.07;;
3541;SDS011;1785;47.388;8.538;2022-12-05T15:26:26;7.00;;;6.40;;
3541;SDS011;1785;47.388;8.538;2022-12-05T15:29:04;6.60;;;6.00;;
3541;SDS011;1785;47.388;8.538;2022-12-05T15:31:32;6.50;;;5.90;;
3541;SDS011;1785;47.388;8.538;2022-12-05T15:34:04;7.67;;;6.10;;
3541;SDS011;1785;47.388;8.538;2022-12-05T15:36:37;6.90;;;6.30;;
3541;SDS011;1785;47.388;8.538;2022-12-05T15:39:16;6.53;;;5.93;;
3541;SDS011;1785;47.388;8.538;2022-12-05T15:41:48;6.87;;;6.27;;
3541;SDS011;1785;47.388;8.538;2022-12-05T15:44:16;6.00;;;5.50;;